sensor_id;sensor_type;location;lat;lon;timestamp;pressure;altitude;pressure_sealevel;temperature;humidity
18678;BME280;9469;51.114;13.914;2023-02-03T00:02:56;99445.59;;;3.53;100.00
18678;BME280;9469;51.114;13.914;2023-02-03T00:08:03;99449.84;;;3.54;100.00
18678;BME280;9469;51.114;13.914;2023-02-03T00:13:08;99448.53;;;3.40;100.00
18678;BME280;9469;51.114;13.914;2023-02-03T00:18:18;99443.31;;;3.74;100.00
18678;BME280;9469;51.114;13.914;2023-02-03T00:23:23;99434.00;;;3.83;100.00
18678;BME280;9469;51.114;13.914;2023-02-03T00:28:33;99428.59;;;3.73;100.00
18678;BME280;9469;51.114;13.914;2023-02-03T00:33:41;99432.38;;;3.65;100.00
18678;BME280;9469;51.114;13.914;2023-02-03T00:38:46;99421.22;;;3.58;100.00
18678;BME280;9469;51.114;13.914;2023-02-03T00:43:55;99411.31;;;3.48;100.00
18678;BME280;9469;51.114;13.914;2023-02-03T00:49:03;99402.00;;;3.41;100.00
18678;BME280;9469;51.114;13.914;2023-02-03T00:54:08;99394.00;;;3.36;100.00
18678;BME280;9469;51.114;13.914;2023-02-03T00:59:15;99389.56;;;3.36;100.00
18678;BME280;9469;51.114;13.914;2023-02-03T01:04:23;99372.75;;;3.54;100.00
18678;BME280;9469;51.114;13.914;2023-02-03T01:09:32;99365.31;;;3.34;100.00
18678;BME280;9469;51.114;13.914;2023-02-03T01:14:37;99349.72;;;3.61;100.00
18678;BME280;9469;51.114;13.914;2023-02-03T01:19:45;99338.00;;;3.69;100.00
18678;BME280;9469;51.114;13.914;2023-02-03T01:24:52;99318.44;;;3.64;100.00
18678;BME280;9469;51.114;13.914;2023-02-03T01:29:57;99296.13;;;3.67;100.00
18678;BME280;9469;51.114;13.914;2023-02-03T01:35:05;99298.59;;;3.74;100.00
18678;BME280;9469;51.114;13.914;2023-02-03T01:40:12;99284.66;;;3.40;100.00
18678;BME280;9469;51.114;13.914;2023-02-03T01:45:18;99274.16;;;3.40;100.00
18678;BME280;9469;51.114;13.914;2023-02-03T01:50:29;99279.00;;;2.98;100.00
18678;BME280;9469;51.114;13.914;2023-02-03T01:55:38;99276.19;;;3.21;100.00
18678;BME280;9469;51.114;13.914;2023-02-03T02:00:45;99265.88;;;3.31;100.00
18678;BME280;9469;51.114;13.914;2023-02-03T02:05:56;99252.00;;;3.19;100.00
18678;BME280;9469;51.114;13.914;2023-02-03T02:11:07;99243.63;;;3.22;100.00
18678;BME280;9469;51.114;13.914;2023-02-03T02:16:17;99230.75;;;3.21;100.00
18678;BME280;9469;51.114;13.914;2023-02-03T02:21:44;99224.28;;;3.12;100.00
18678;BME280;9469;51.114;13.914;2023-02-03T02:27:01;99226.13;;;3.11;100.00
18678;BME280;9469;51.114;13.914;2023-02-03T02:32:18;99213.19;;;3.26;100.00
18678;BME280;9469;51.114;13.914;2023-02-03T02:37:36;99192.03;;;3.16;100.00
18678;BME280;9469;51.114;13.914;2023-02-03T02:42:53;99182.88;;;3.19;100.00
18678;BME280;9469;51.114;13.914;2023-02-03T02:48:09;99169.38;;;3.15;100.00
18678;BME280;9469;51.114;13.914;2023-02-03T02:53:20;99164.91;;;3.32;100.00
18678;BME280;9469;51.114;13.914;2023-02-03T02:58:30;99136.38;;;3.41;100.00
18678;BME280;9469;51.114;13.914;2023-02-03T03:03:38;99119.16;;;3.33;100.00
18678;BME280;9469;51.114;13.914;2023-02-03T03:08:49;99103.28;;;3.45;100.00
18678;BME280;9469;51.114;13.914;2023-02-03T03:13:57;99091.59;;;3.36;100.00
18678;BME280;9469;51.114;13.914;2023-02-03T03:19:08;99081.22;;;3.46;100.00
18678;BME280;9469;51.114;13.914;2023-02-03T03:24:19;99062.06;;;3.50;100.00
18678;BME280;9469;51.114;13.914;2023-02-03T03:29:30;99065.78;;;3.54;100.00
18678;BME280;9469;51.114;13.914;2023-02-03T03:34:39;99067.75;;;3.64;100.00
18678;BME280;9469;51.114;13.914;2023-02-03T03:39:47;99058.63;;;3.50;100.00
18678;BME280;9469;51.114;13.914;2023-02-03T03:44:58;99066.81;;;3.53;100.00
18678;BME280;9469;51.114;13.914;2023-02-03T03:50:11;99048.03;;;3.67;100.00
18678;BME280;9469;51.114;13.914;2023-02-03T03:55:19;99044.66;;;3.71;100.00
18678;BME280;9469;51.114;13.914;2023-02-03T04:00:28;99032.34;;;3.77;100.00
18678;BME280;9469;51.114;13.914;2023-02-03T04:05:37;99014.75;;;3.77;100.00
18678;BME280;9469;51.114;13.914;2023-02-03T04:10:43;98981.34;;;3.78;100.00
18678;BME280;9469;51.114;13.914;2023-02-03T04:15:48;98969.94;;;3.99;100.00
18678;BME280;9469;51.114;13.914;2023-02-03T04:20:56;98972.66;;;4.09;100.00
18678;BME280;9469;51.114;13.914;2023-02-03T04:26:01;98963.25;;;4.18;100.00
18678;BME280;9469;51.114;13.914;2023-02-03T04:31:06;98951.22;;;4.32;100.00
18678;BME280;9469;51.114;13.914;2023-02-03T04:36:15;98942.91;;;4.50;100.00
18678;BME280;9469;51.114;13.914;2023-02-03T04:41:20;98956.41;;;4.59;100.00
18678;BME280;9469;51.114;13.914;2023-02-03T04:46:25;98946.25;;;4.82;100.00
18678;BME280;9469;51.114;13.914;2023-02-03T04:51:33;98959.19;;;4.84;100.00
18678;BME280;9469;51.114;13.914;2023-02-03T04:56:43;98942.91;;;4.97;100.00
18678;BME280;9469;51.114;13.914;2023-02-03T05:01:48;98945.81;;;5.05;100.00
18678;BME280;9469;51.114;13.914;2023-02-03T05:06:56;98934.22;;;5.12;100.00
18678;BME280;9469;51.114;13.914;2023-02-03T05:12:01;98906.56;;;5.14;100.00
18678;BME280;9469;51.114;13.914;2023-02-03T05:17:06;98925.59;;;5.26;100.00
18678;BME280;9469;51.114;13.914;2023-02-03T05:22:14;98916.84;;;5.21;100.00
18678;BME280;9469;51.114;13.914;2023-02-03T05:27:19;98909.22;;;5.29;100.00
18678;BME280;9469;51.114;13.914;2023-02-03T05:32:25;98884.69;;;5.34;100.00
18678;BME280;9469;51.114;13.914;2023-02-03T05:37:33;98886.31;;;5.35;100.00
18678;BME280;9469;51.114;13.914;2023-02-03T05:42:39;98902.94;;;5.40;100.00
18678;BME280;9469;51.114;13.914;2023-02-03T05:47:44;98885.25;;;5.41;100.00
18678;BME280;9469;51.114;13.914;2023-02-03T05:52:51;98899.50;;;5.40;100.00
18678;BME280;9469;51.114;13.914;2023-02-03T05:57:57;98905.84;;;5.44;100.00
18678;BME280;9469;51.114;13.914;2023-02-03T06:03:03;98891.88;;;5.53;100.00
18678;BME280;9469;51.114;13.914;2023-02-03T06:08:21;98888.72;;;5.51;100.00
18678;BME280;9469;51.114;13.914;2023-02-03T06:13:29;98902.16;;;5.55;100.00
18678;BME280;9469;51.114;13.914;2023-02-03T06:18:34;98876.81;;;5.59;100.00
18678;BME280;9469;51.114;13.914;2023-02-03T06:23:42;98865.22;;;5.65;100.00
18678;BME280;9469;51.114;13.914;2023-02-03T06:28:47;98849.13;;;5.61;100.00
18678;BME280;9469;51.114;13.914;2023-02-03T06:33:52;98861.53;;;5.71;100.00
18678;BME280;9469;51.114;13.914;2023-02-03T06:39:00;98842.25;;;5.70;100.00
18678;BME280;9469;51.114;13.914;2023-02-03T06:44:06;98837.22;;;5.79;100.00
18678;BME280;9469;51.114;13.914;2023-02-03T06:49:12;98826.94;;;5.77;100.00
18678;BME280;9469;51.114;13.914;2023-02-03T06:54:20;98812.44;;;5.80;100.00
18678;BME280;9469;51.114;13.914;2023-02-03T06:59:26;98805.84;;;5.88;100.00
18678;BME280;9469;51.114;13.914;2023-02-03T07:04:31;98798.69;;;5.93;100.00
18678;BME280;9469;51.114;13.914;2023-02-03T07:09:42;98797.91;;;5.98;100.00
18678;BME280;9469;51.114;13.914;2023-02-03T07:14:53;98779.19;;;5.94;100.00
18678;BME280;9469;51.114;13.914;2023-02-03T07:19:59;98775.50;;;5.85;100.00
18678;BME280;9469;51.114;13.914;2023-02-03T07:25:07;98766.75;;;6.00;100.00
18678;BME280;9469;51.114;13.914;2023-02-03T07:30:17;98768.84;;;6.03;100.00
18678;BME280;9469;51.114;13.914;2023-02-03T07:35:22;98773.63;;;5.91;100.00
18678;BME280;9469;51.114;13.914;2023-02-03T07:40:30;98776.25;;;5.96;100.00
18678;BME280;9469;51.114;13.914;2023-02-03T07:45:35;98763.84;;;6.01;100.00
18678;BME280;9469;51.114;13.914;2023-02-03T07:50:43;98755.94;;;6.01;100.00
18678;BME280;9469;51.114;13.914;2023-02-03T07:55:50;98752.22;;;6.02;100.00
18678;BME280;9469;51.114;13.914;2023-02-03T08:01:08;98746.91;;;6.07;100.00
18678;BME280;9469;51.114;13.914;2023-02-03T08:06:15;98741.13;;;6.00;100.00
18678;BME280;9469;51.114;13.914;2023-02-03T08:11:24;98737.69;;;6.05;100.00
18678;BME280;9469;51.114;13.914;2023-02-03T08:16:39;98729.00;;;5.99;100.00
18678;BME280;9469;51.114;13.914;2023-02-03T08:21:50;98726.63;;;5.98;100.00
18678;BME280;9469;51.114;13.914;2023-02-03T08:26:59;98715.00;;;5.83;100.00
18678;BME280;9469;51.114;13.914;2023-02-03T08:32:04;98717.44;;;5.85;100.00
18678;BME280;9469;51.114;13.914;2023-02-03T08:37:14;98711.06;;;5.86;100.00
18678;BME280;9469;51.114;13.914;2023-02-03T08:42:21;98715.81;;;5.89;100.00
18678;BME280;9469;51.114;13.914;2023-02-03T08:47:27;98706.31;;;5.88;100.00
18678;BME280;9469;51.114;13.914;2023-02-03T08:52:32;98691.25;;;5.83;100.00
18678;BME280;9469;51.114;13.914;2023-02-03T08:57:40;98676.50;;;5.88;100.00
18678;BME280;9469;51.114;13.914;2023-02-03T09:02:45;98667.50;;;5.83;100.00
18678;BME280;9469;51.114;13.914;2023-02-03T09:07:51;98686.25;;;5.92;100.00
18678;BME280;9469;51.114;13.914;2023-02-03T09:12:59;98681.50;;;5.89;100.00
18678;BME280;9469;51.114;13.914;2023-02-03T09:18:04;98655.63;;;5.86;100.00
18678;BME280;9469;51.114;13.914;2023-02-03T09:23:10;98655.66;;;5.81;100.00
18678;BME280;9469;51.114;13.914;2023-02-03T09:28:18;98648.78;;;5.85;100.00
18678;BME280;9469;51.114;13.914;2023-02-03T09:33:27;98632.38;;;5.93;100.00
18678;BME280;9469;51.114;13.914;2023-02-03T09:38:34;98626.06;;;5.89;100.00
18678;BME280;9469;51.114;13.914;2023-02-03T09:43:48;98604.13;;;5.94;100.00
18678;BME280;9469;51.114;13.914;2023-02-03T09:48:57;98590.41;;;5.92;100.00
18678;BME280;9469;51.114;13.914;2023-02-03T09:54:06;98576.41;;;5.91;100.00
18678;BME280;9469;51.114;13.914;2023-02-03T09:59:20;98569.78;;;5.99;100.00
18678;BME280;9469;51.114;13.914;2023-02-03T10:04:31;98567.97;;;5.94;100.00
18678;BME280;9469;51.114;13.914;2023-02-03T10:09:49;98548.41;;;5.95;100.00
18678;BME280;9469;51.114;13.914;2023-02-03T10:15:19;98537.53;;;6.02;100.00
18678;BME280;9469;51.114;13.914;2023-02-03T10:20:33;98533.06;;;6.02;100.00
18678;BME280;9469;51.114;13.914;2023-02-03T10:25:41;98509.53;;;6.06;100.00
18678;BME280;9469;51.114;13.914;2023-02-03T10:30:55;98496.88;;;6.03;100.00
18678;BME280;9469;51.114;13.914;2023-02-03T10:36:13;98495.56;;;6.05;100.00
18678;BME280;9469;51.114;13.914;2023-02-03T10:41:23;98484.69;;;6.07;100.00
18678;BME280;9469;51.114;13.914;2023-02-03T10:46:33;98460.91;;;6.12;100.00
18678;BME280;9469;51.114;13.914;2023-02-03T10:51:43;98465.97;;;6.08;100.00
18678;BME280;9469;51.114;13.914;2023-02-03T10:56:50;98438.94;;;6.16;100.00
18678;BME280;9469;51.114;13.914;2023-02-03T11:01:58;98447.38;;;6.18;100.00
18678;BME280;9469;51.114;13.914;2023-02-03T11:07:25;98433.13;;;6.19;100.00
18678;BME280;9469;51.114;13.914;2023-02-03T11:12:30;98437.81;;;6.22;100.00
18678;BME280;9469;51.114;13.914;2023-02-03T11:17:43;98426.69;;;6.30;100.00
18678;BME280;9469;51.114;13.914;2023-02-03T11:22:48;98424.28;;;6.29;100.00
18678;BME280;9469;51.114;13.914;2023-02-03T11:27:54;98402.84;;;6.35;100.00
18678;BME280;9469;51.114;13.914;2023-02-03T11:33:02;98407.06;;;6.36;100.00
18678;BME280;9469;51.114;13.914;2023-02-03T11:38:28;98408.66;;;6.37;100.00
18678;BME280;9469;51.114;13.914;2023-02-03T11:43:35;98411.78;;;6.39;100.00
18678;BME280;9469;51.114;13.914;2023-02-03T11:48:58;98361.41;;;6.55;100.00
18678;BME280;9469;51.114;13.914;2023-02-03T11:54:17;98337.00;;;6.63;100.00
18678;BME280;9469;51.114;13.914;2023-02-03T12:00:00;98298.03;;;6.73;100.00
18678;BME280;9469;51.114;13.914;2023-02-03T12:05:40;98287.41;;;6.78;100.00
18678;BME280;9469;51.114;13.914;2023-02-03T12:11:02;98284.16;;;6.81;100.00
18678;BME280;9469;51.114;13.914;2023-02-03T12:16:20;98319.88;;;6.79;100.00
18678;BME280;9469;51.114;13.914;2023-02-03T12:21:41;98305.81;;;6.83;100.00
18678;BME280;9469;51.114;13.914;2023-02-03T12:26:53;98302.31;;;6.88;100.00
18678;BME280;9469;51.114;13.914;2023-02-03T12:32:06;98308.63;;;6.92;100.00
18678;BME280;9469;51.114;13.914;2023-02-03T12:37:21;98284.75;;;6.97;100.00
18678;BME280;9469;51.114;13.914;2023-02-03T12:42:33;98297.34;;;7.05;100.00
18678;BME280;9469;51.114;13.914;2023-02-03T12:47:43;98281.47;;;7.05;100.00
18678;BME280;9469;51.114;13.914;2023-02-03T12:52:59;98282.53;;;7.04;100.00
18678;BME280;9469;51.114;13.914;2023-02-03T12:58:11;98290.94;;;7.06;100.00
18678;BME280;9469;51.114;13.914;2023-02-03T13:03:48;98299.31;;;7.13;100.00
18678;BME280;9469;51.114;13.914;2023-02-03T13:15:03;98426.47;;;5.93;100.00
18678;BME280;9469;51.114;13.914;2023-02-03T13:20:18;98417.72;;;5.98;100.00
18678;BME280;9469;51.114;13.914;2023-02-03T13:25:28;98411.53;;;6.12;100.00
18678;BME280;9469;51.114;13.914;2023-02-03T13:31:03;98414.94;;;6.41;100.00
18678;BME280;9469;51.114;13.914;2023-02-03T13:42:17;98433.06;;;6.53;100.00
18678;BME280;9469;51.114;13.914;2023-02-03T13:47:29;98423.28;;;6.77;100.00
18678;BME280;9469;51.114;13.914;2023-02-03T13:52:39;98433.19;;;6.67;100.00
18678;BME280;9469;51.114;13.914;2023-02-03T13:57:50;98450.03;;;6.71;100.00
18678;BME280;9469;51.114;13.914;2023-02-03T14:03:14;98445.03;;;6.93;100.00
18678;BME280;9469;51.114;13.914;2023-02-03T14:08:52;98445.16;;;7.25;100.00
18678;BME280;9469;51.114;13.914;2023-02-03T14:19:56;98455.19;;;7.28;100.00
18678;BME280;9469;51.114;13.914;2023-02-03T14:25:04;98476.97;;;7.20;100.00
18678;BME280;9469;51.114;13.914;2023-02-03T14:30:13;98474.78;;;7.03;100.00
18678;BME280;9469;51.114;13.914;2023-02-03T14:35:24;98463.59;;;6.88;100.00
18678;BME280;9469;51.114;13.914;2023-02-03T14:40:39;98491.50;;;6.99;100.00
18678;BME280;9469;51.114;13.914;2023-02-03T14:46:14;98497.97;;;6.88;100.00
18678;BME280;9469;51.114;13.914;2023-02-03T14:51:38;98494.84;;;6.81;100.00
18678;BME280;9469;51.114;13.914;2023-02-03T14:56:49;98522.44;;;6.75;100.00
18678;BME280;9469;51.114;13.914;2023-02-03T15:02:20;98519.19;;;6.54;100.00
18678;BME280;9469;51.114;13.914;2023-02-03T15:07:37;98513.66;;;6.50;100.00
18678;BME280;9469;51.114;13.914;2023-02-03T15:12:47;98524.78;;;6.47;100.00
18678;BME280;9469;51.114;13.914;2023-02-03T15:17:57;98533.88;;;6.36;100.00
18678;BME280;9469;51.114;13.914;2023-02-03T15:23:18;98538.28;;;6.12;100.00
18678;BME280;9469;51.114;13.914;2023-02-03T15:28:25;98541.59;;;5.89;100.00
18678;BME280;9469;51.114;13.914;2023-02-03T15:33:31;98537.72;;;5.66;100.00
18678;BME280;9469;51.114;13.914;2023-02-03T15:38:46;98556.50;;;5.60;100.00
18678;BME280;9469;51.114;13.914;2023-02-03T15:43:56;98555.38;;;5.71;100.00
18678;BME280;9469;51.114;13.914;2023-02-03T15:49:11;98565.63;;;5.82;100.00
18678;BME280;9469;51.114;13.914;2023-02-03T15:54:27;98567.72;;;5.91;100.00
18678;BME280;9469;51.114;13.914;2023-02-03T15:59:43;98575.81;;;6.04;100.00
18678;BME280;9469;51.114;13.914;2023-02-03T16:04:50;98585.31;;;6.05;100.00
18678;BME280;9469;51.114;13.914;2023-02-03T16:09:59;98587.31;;;6.23;100.00
18678;BME280;9469;51.114;13.914;2023-02-03T16:15:19;98586.03;;;6.16;100.00
18678;BME280;9469;51.114;13.914;2023-02-03T16:20:26;98592.34;;;6.20;100.00
18678;BME280;9469;51.114;13.914;2023-02-03T16:25:36;98599.44;;;6.24;100.00
18678;BME280;9469;51.114;13.914;2023-02-03T16:30:53;98610.28;;;6.28;100.00
18678;BME280;9469;51.114;13.914;2023-02-03T16:36:13;98611.00;;;6.33;100.00
18678;BME280;9469;51.114;13.914;2023-02-03T16:41:33;98616.91;;;6.25;100.00
18678;BME280;9469;51.114;13.914;2023-02-03T16:46:52;98618.13;;;6.38;100.00
18678;BME280;9469;51.114;13.914;2023-02-03T16:52:09;98631.59;;;6.41;100.00
18678;BME280;9469;51.114;13.914;2023-02-03T16:57:20;98620.22;;;6.41;99.35
18678;BME280;9469;51.114;13.914;2023-02-03T17:02:26;98626.88;;;6.33;100.00
18678;BME280;9469;51.114;13.914;2023-02-03T17:07:31;98642.97;;;6.37;100.00
18678;BME280;9469;51.114;13.914;2023-02-03T17:12:41;98642.19;;;6.36;100.00
18678;BME280;9469;51.114;13.914;2023-02-03T17:17:45;98656.41;;;6.40;100.00
18678;BME280;9469;51.114;13.914;2023-02-03T17:22:51;98650.09;;;6.41;100.00
18678;BME280;9469;51.114;13.914;2023-02-03T17:27:58;98651.69;;;6.37;100.00
18678;BME280;9469;51.114;13.914;2023-02-03T17:33:07;98652.72;;;6.41;99.15
18678;BME280;9469;51.114;13.914;2023-02-03T17:38:13;98656.38;;;6.45;99.35
18678;BME280;9469;51.114;13.914;2023-02-03T17:43:21;98665.41;;;6.39;98.43
18678;BME280;9469;51.114;13.914;2023-02-03T17:48:41;98657.75;;;6.38;98.46
18678;BME280;9469;51.114;13.914;2023-02-03T17:54:00;98654.84;;;6.39;97.85
18678;BME280;9469;51.114;13.914;2023-02-03T17:59:11;98664.91;;;6.37;98.10
18678;BME280;9469;51.114;13.914;2023-02-03T18:04:16;98674.66;;;6.42;98.01
18678;BME280;9469;51.114;13.914;2023-02-03T18:09:21;98689.22;;;6.34;98.37
18678;BME280;9469;51.114;13.914;2023-02-03T18:14:28;98694.19;;;6.46;97.42
18678;BME280;9469;51.114;13.914;2023-02-03T18:19:33;98700.03;;;6.38;98.05
18678;BME280;9469;51.114;13.914;2023-02-03T18:24:39;98706.09;;;6.38;98.45
18678;BME280;9469;51.114;13.914;2023-02-03T18:29:48;98705.06;;;6.34;97.77
18678;BME280;9469;51.114;13.914;2023-02-03T18:34:53;98725.97;;;6.31;97.13
18678;BME280;9469;51.114;13.914;2023-02-03T18:39:58;98719.41;;;6.23;95.71
18678;BME280;9469;51.114;13.914;2023-02-03T18:45:07;98722.56;;;6.20;94.57
18678;BME280;9469;51.114;13.914;2023-02-03T18:50:13;98717.56;;;6.19;94.56
18678;BME280;9469;51.114;13.914;2023-02-03T18:55:18;98728.66;;;6.21;94.54
18678;BME280;9469;51.114;13.914;2023-02-03T19:00:26;98734.25;;;6.04;95.02
18678;BME280;9469;51.114;13.914;2023-02-03T19:05:34;98732.69;;;5.93;96.89
18678;BME280;9469;51.114;13.914;2023-02-03T19:10:41;98730.84;;;5.94;97.55
18678;BME280;9469;51.114;13.914;2023-02-03T19:15:52;98740.09;;;5.96;97.21
18678;BME280;9469;51.114;13.914;2023-02-03T19:21:01;98740.09;;;5.86;98.90
18678;BME280;9469;51.114;13.914;2023-02-03T19:26:06;98730.38;;;5.71;100.00
18678;BME280;9469;51.114;13.914;2023-02-03T19:31:15;98733.75;;;5.82;99.83
18678;BME280;9469;51.114;13.914;2023-02-03T19:36:28;98731.13;;;5.77;99.22
18678;BME280;9469;51.114;13.914;2023-02-03T19:41:40;98740.13;;;5.81;100.00
18678;BME280;9469;51.114;13.914;2023-02-03T19:46:48;98749.88;;;5.65;100.00
18678;BME280;9469;51.114;13.914;2023-02-03T19:51:53;98758.13;;;5.29;100.00
18678;BME280;9469;51.114;13.914;2023-02-03T19:56:58;98744.91;;;5.14;100.00
18678;BME280;9469;51.114;13.914;2023-02-03T20:02:06;98733.31;;;5.04;100.00
18678;BME280;9469;51.114;13.914;2023-02-03T20:07:16;98742.28;;;5.14;100.00
18678;BME280;9469;51.114;13.914;2023-02-03T20:12:21;98750.19;;;5.39;100.00
18678;BME280;9469;51.114;13.914;2023-02-03T20:17:29;98756.53;;;5.28;100.00
18678;BME280;9469;51.114;13.914;2023-02-03T20:22:34;98780.00;;;5.24;100.00
18678;BME280;9469;51.114;13.914;2023-02-03T20:27:42;98778.69;;;5.06;100.00
18678;BME280;9469;51.114;13.914;2023-02-03T20:32:56;98783.63;;;4.83;100.00
18678;BME280;9469;51.114;13.914;2023-02-03T20:38:06;98777.56;;;4.77;100.00
18678;BME280;9469;51.114;13.914;2023-02-03T20:43:14;98778.09;;;4.84;100.00
18678;BME280;9469;51.114;13.914;2023-02-03T20:48:24;98778.59;;;4.71;100.00
18678;BME280;9469;51.114;13.914;2023-02-03T20:53:32;98777.28;;;4.74;100.00
18678;BME280;9469;51.114;13.914;2023-02-03T20:58:38;98775.47;;;4.74;100.00
18678;BME280;9469;51.114;13.914;2023-02-03T21:03:47;98786.50;;;4.71;100.00
18678;BME280;9469;51.114;13.914;2023-02-03T21:09:11;98786.25;;;4.78;100.00
18678;BME280;9469;51.114;13.914;2023-02-03T21:14:21;98806.03;;;4.80;100.00
18678;BME280;9469;51.114;13.914;2023-02-03T21:19:31;98802.06;;;4.78;100.00
18678;BME280;9469;51.114;13.914;2023-02-03T21:24:37;98793.63;;;4.76;100.00
18678;BME280;9469;51.114;13.914;2023-02-03T21:29:46;98804.16;;;4.71;100.00
18678;BME280;9469;51.114;13.914;2023-02-03T21:34:54;98809.41;;;4.71;100.00
18678;BME280;9469;51.114;13.914;2023-02-03T21:39:59;98812.84;;;4.61;100.00
18678;BME280;9469;51.114;13.914;2023-02-03T21:45:22;98809.13;;;4.62;100.00
18678;BME280;9469;51.114;13.914;2023-02-03T21:50:37;98822.81;;;4.59;100.00
18678;BME280;9469;51.114;13.914;2023-02-03T21:55:43;98844.47;;;4.61;100.00
18678;BME280;9469;51.114;13.914;2023-02-03T22:00:49;98845.75;;;4.59;100.00
18678;BME280;9469;51.114;13.914;2023-02-03T22:06:14;98848.63;;;4.57;100.00
18678;BME280;9469;51.114;13.914;2023-02-03T22:11:21;98866.03;;;4.58;100.00
18678;BME280;9469;51.114;13.914;2023-02-03T22:16:28;98870.81;;;4.61;100.00
18678;BME280;9469;51.114;13.914;2023-02-03T22:21:36;98874.16;;;4.47;100.00
18678;BME280;9469;51.114;13.914;2023-02-03T22:26:41;98873.88;;;4.48;100.00
18678;BME280;9469;51.114;13.914;2023-02-03T22:31:46;98874.94;;;4.47;100.00
18678;BME280;9469;51.114;13.914;2023-02-03T22:36:54;98879.16;;;4.43;100.00
18678;BME280;9469;51.114;13.914;2023-02-03T22:42:01;98882.59;;;4.49;100.00
18678;BME280;9469;51.114;13.914;2023-02-03T22:47:06;98876.72;;;4.36;100.00
18678;BME280;9469;51.114;13.914;2023-02-03T22:52:14;98879.38;;;4.42;100.00
18678;BME280;9469;51.114;13.914;2023-02-03T22:57:19;98884.38;;;4.38;100.00
18678;BME280;9469;51.114;13.914;2023-02-03T23:02:24;98896.75;;;4.38;100.00
18678;BME280;9469;51.114;13.914;2023-02-03T23:07:32;98885.44;;;4.42;100.00
18678;BME280;9469;51.114;13.914;2023-02-03T23:12:38;98900.22;;;4.43;100.00
18678;BME280;9469;51.114;13.914;2023-02-03T23:17:46;98885.72;;;4.41;100.00
18678;BME280;9469;51.114;13.914;2023-02-03T23:22:55;98899.16;;;4.44;100.00
18678;BME280;9469;51.114;13.914;2023-02-03T23:28:03;98888.63;;;4.44;100.00
18678;BME280;9469;51.114;13.914;2023-02-03T23:33:08;98903.44;;;4.55;100.00
18678;BME280;9469;51.114;13.914;2023-02-03T23:38:16;98904.47;;;4.49;100.00
18678;BME280;9469;51.114;13.914;2023-02-03T23:43:21;98950.81;;;4.45;100.00
18678;BME280;9469;51.114;13.914;2023-02-03T23:48:27;99010.59;;;4.45;100.00
18678;BME280;9469;51.114;13.914;2023-02-03T23:53:34;99018.69;;;4.06;100.00
18678;BME280;9469;51.114;13.914;2023-02-03T23:58:39;99042.69;;;4.10;100.00
